sensor_id;sensor_type;location;lat;lon;timestamp;P1;durP1;ratioP1;P2;durP2;ratioP2
66800;SDS011;53703;50.326;19.122;2023-11-19T00:02:19;11.00;;;5.70;;
66800;SDS011;53703;50.326;19.122;2023-11-19T00:04:52;12.70;;;6.60;;
66800;SDS011;53703;50.326;19.122;2023-11-19T00:07:26;12.30;;;6.30;;
66800;SDS011;53703;50.326;19.122;2023-11-19T00:10:07;10.40;;;5.50;;
66800;SDS011;53703;50.326;19.122;2023-11-19T00:12:42;11.10;;;6.00;;
66800;SDS011;53703;50.326;19.122;2023-11-19T00:15:17;11.50;;;5.90;;
66800;SDS011;53703;50.326;19.122;2023-11-19T00:17:50;11.90;;;5.90;;
66800;SDS011;53703;50.326;19.122;2023-11-19T00:20:24;11.70;;;6.40;;
66800;SDS011;53703;50.326;19.122;2023-11-19T00:22:57;10.80;;;6.60;;
66800;SDS011;53703;50.326;19.122;2023-11-19T00:25:32;10.70;;;6.30;;
66800;SDS011;53703;50.326;19.122;2023-11-19T00:28:06;11.90;;;6.10;;
66800;SDS011;53703;50.326;19.122;2023-11-19T00:30:39;11.30;;;6.10;;
66800;SDS011;53703;50.326;19.122;2023-11-19T00:33:13;11.40;;;5.90;;
66800;SDS011;53703;50.326;19.122;2023-11-19T00:35:46;11.70;;;6.20;;
66800;SDS011;53703;50.326;19.122;2023-11-19T00:38:20;12.50;;;5.80;;
66800;SDS011;53703;50.326;19.122;2023-11-19T00:40:53;12.60;;;6.00;;
66800;SDS011;53703;50.326;19.122;2023-11-19T00:43:27;11.00;;;5.20;;
66800;SDS011;53703;50.326;19.122;2023-11-19T00:46:00;11.80;;;5.80;;
66800;SDS011;53703;50.326;19.122;2023-11-19T00:48:35;10.40;;;5.50;;
66800;SDS011;53703;50.326;19.122;2023-11-19T00:51:11;11.10;;;6.30;;
66800;SDS011;53703;50.326;19.122;2023-11-19T00:53:44;11.10;;;5.80;;
66800;SDS011;53703;50.326;19.122;2023-11-19T00:56:18;11.40;;;5.50;;
66800;SDS011;53703;50.326;19.122;2023-11-19T00:58:52;11.30;;;6.10;;
66800;SDS011;53703;50.326;19.122;2023-11-19T01:01:25;9.90;;;5.40;;
66800;SDS011;53703;50.326;19.122;2023-11-19T01:03:59;10.80;;;5.50;;
66800;SDS011;53703;50.326;19.122;2023-11-19T01:06:33;10.80;;;5.60;;
66800;SDS011;53703;50.326;19.122;2023-11-19T01:09:18;10.40;;;5.80;;
66800;SDS011;53703;50.326;19.122;2023-11-19T01:11:51;12.90;;;5.60;;
66800;SDS011;53703;50.326;19.122;2023-11-19T01:14:25;11.30;;;5.70;;
66800;SDS011;53703;50.326;19.122;2023-11-19T01:16:58;9.00;;;4.90;;
66800;SDS011;53703;50.326;19.122;2023-11-19T01:19:32;10.30;;;5.50;;
66800;SDS011;53703;50.326;19.122;2023-11-19T01:22:06;12.10;;;5.30;;
66800;SDS011;53703;50.326;19.122;2023-11-19T01:24:39;11.50;;;6.10;;
66800;SDS011;53703;50.326;19.122;2023-11-19T01:27:13;10.30;;;5.80;;
66800;SDS011;53703;50.326;19.122;2023-11-19T01:29:46;12.10;;;6.30;;
66800;SDS011;53703;50.326;19.122;2023-11-19T01:32:19;10.80;;;5.50;;
66800;SDS011;53703;50.326;19.122;2023-11-19T01:34:54;11.60;;;5.50;;
66800;SDS011;53703;50.326;19.122;2023-11-19T01:37:28;12.50;;;5.90;;
66800;SDS011;53703;50.326;19.122;2023-11-19T01:40:02;13.90;;;5.80;;
66800;SDS011;53703;50.326;19.122;2023-11-19T01:42:39;12.00;;;6.00;;
66800;SDS011;53703;50.326;19.122;2023-11-19T01:45:16;9.60;;;5.80;;
66800;SDS011;53703;50.326;19.122;2023-11-19T01:48:02;12.90;;;5.70;;
66800;SDS011;53703;50.326;19.122;2023-11-19T01:50:36;10.50;;;5.60;;
66800;SDS011;53703;50.326;19.122;2023-11-19T01:53:10;12.60;;;6.00;;
66800;SDS011;53703;50.326;19.122;2023-11-19T01:55:44;11.70;;;5.80;;
66800;SDS011;53703;50.326;19.122;2023-11-19T01:58:19;10.00;;;5.00;;
66800;SDS011;53703;50.326;19.122;2023-11-19T02:00:53;12.20;;;5.70;;
66800;SDS011;53703;50.326;19.122;2023-11-19T02:03:26;11.70;;;5.80;;
66800;SDS011;53703;50.326;19.122;2023-11-19T02:06:00;11.40;;;6.00;;
66800;SDS011;53703;50.326;19.122;2023-11-19T02:08:34;10.00;;;5.80;;
66800;SDS011;53703;50.326;19.122;2023-11-19T02:11:08;12.40;;;5.70;;
66800;SDS011;53703;50.326;19.122;2023-11-19T02:13:42;11.10;;;6.30;;
66800;SDS011;53703;50.326;19.122;2023-11-19T02:16:16;11.00;;;6.10;;
66800;SDS011;53703;50.326;19.122;2023-11-19T02:18:49;11.80;;;6.40;;
66800;SDS011;53703;50.326;19.122;2023-11-19T02:21:23;12.10;;;6.20;;
66800;SDS011;53703;50.326;19.122;2023-11-19T02:23:56;11.40;;;6.00;;
66800;SDS011;53703;50.326;19.122;2023-11-19T02:26:36;10.50;;;5.60;;
66800;SDS011;53703;50.326;19.122;2023-11-19T02:29:12;10.20;;;5.90;;
66800;SDS011;53703;50.326;19.122;2023-11-19T02:31:45;9.90;;;6.20;;
66800;SDS011;53703;50.326;19.122;2023-11-19T02:34:19;11.90;;;5.80;;
66800;SDS011;53703;50.326;19.122;2023-11-19T02:36:53;9.80;;;5.90;;
66800;SDS011;53703;50.326;19.122;2023-11-19T02:39:27;11.00;;;6.20;;
66800;SDS011;53703;50.326;19.122;2023-11-19T02:42:00;11.40;;;6.00;;
66800;SDS011;53703;50.326;19.122;2023-11-19T02:44:34;11.50;;;6.10;;
66800;SDS011;53703;50.326;19.122;2023-11-19T02:47:08;12.50;;;6.40;;
66800;SDS011;53703;50.326;19.122;2023-11-19T02:49:41;10.40;;;5.80;;
66800;SDS011;53703;50.326;19.122;2023-11-19T02:52:15;11.20;;;6.00;;
66800;SDS011;53703;50.326;19.122;2023-11-19T02:54:49;11.20;;;6.30;;
66800;SDS011;53703;50.326;19.122;2023-11-19T02:57:23;10.60;;;6.00;;
66800;SDS011;53703;50.326;19.122;2023-11-19T02:59:56;11.70;;;6.00;;
66800;SDS011;53703;50.326;19.122;2023-11-19T03:02:30;12.80;;;6.10;;
66800;SDS011;53703;50.326;19.122;2023-11-19T03:05:05;10.70;;;5.70;;
66800;SDS011;53703;50.326;19.122;2023-11-19T03:07:39;12.20;;;5.70;;
66800;SDS011;53703;50.326;19.122;2023-11-19T03:10:14;13.00;;;6.30;;
66800;SDS011;53703;50.326;19.122;2023-11-19T03:12:48;11.40;;;5.70;;
66800;SDS011;53703;50.326;19.122;2023-11-19T03:15:21;12.10;;;6.30;;
66800;SDS011;53703;50.326;19.122;2023-11-19T03:17:55;13.30;;;5.60;;
66800;SDS011;53703;50.326;19.122;2023-11-19T03:20:28;11.30;;;6.20;;
66800;SDS011;53703;50.326;19.122;2023-11-19T03:23:02;11.40;;;5.60;;
66800;SDS011;53703;50.326;19.122;2023-11-19T03:25:36;11.30;;;6.00;;
66800;SDS011;53703;50.326;19.122;2023-11-19T03:28:10;12.00;;;6.40;;
66800;SDS011;53703;50.326;19.122;2023-11-19T03:30:44;10.20;;;5.70;;
66800;SDS011;53703;50.326;19.122;2023-11-19T03:33:17;11.20;;;6.20;;
66800;SDS011;53703;50.326;19.122;2023-11-19T03:35:51;11.60;;;5.90;;
66800;SDS011;53703;50.326;19.122;2023-11-19T03:38:24;11.50;;;5.60;;
66800;SDS011;53703;50.326;19.122;2023-11-19T03:40:58;13.40;;;5.50;;
66800;SDS011;53703;50.326;19.122;2023-11-19T03:43:32;11.30;;;6.20;;
66800;SDS011;53703;50.326;19.122;2023-11-19T03:46:06;11.10;;;5.70;;
66800;SDS011;53703;50.326;19.122;2023-11-19T03:48:49;11.50;;;5.40;;
66800;SDS011;53703;50.326;19.122;2023-11-19T03:51:23;10.80;;;5.90;;
66800;SDS011;53703;50.326;19.122;2023-11-19T03:53:56;11.30;;;6.00;;
66800;SDS011;53703;50.326;19.122;2023-11-19T03:56:30;11.20;;;6.10;;
66800;SDS011;53703;50.326;19.122;2023-11-19T03:59:04;10.90;;;5.80;;
66800;SDS011;53703;50.326;19.122;2023-11-19T04:01:38;12.10;;;5.90;;
66800;SDS011;53703;50.326;19.122;2023-11-19T04:04:12;11.20;;;5.40;;
66800;SDS011;53703;50.326;19.122;2023-11-19T04:06:46;11.60;;;5.90;;
66800;SDS011;53703;50.326;19.122;2023-11-19T04:09:19;10.80;;;5.90;;
66800;SDS011;53703;50.326;19.122;2023-11-19T04:11:53;12.30;;;6.10;;
66800;SDS011;53703;50.326;19.122;2023-11-19T04:14:26;11.50;;;6.00;;
66800;SDS011;53703;50.326;19.122;2023-11-19T04:16:59;11.60;;;5.60;;
66800;SDS011;53703;50.326;19.122;2023-11-19T04:19:33;12.20;;;6.30;;
66800;SDS011;53703;50.326;19.122;2023-11-19T04:22:06;12.60;;;5.70;;
66800;SDS011;53703;50.326;19.122;2023-11-19T04:24:40;11.10;;;5.80;;
66800;SDS011;53703;50.326;19.122;2023-11-19T04:27:15;11.10;;;5.90;;
66800;SDS011;53703;50.326;19.122;2023-11-19T04:29:48;13.10;;;5.90;;
66800;SDS011;53703;50.326;19.122;2023-11-19T04:32:21;10.10;;;6.00;;
66800;SDS011;53703;50.326;19.122;2023-11-19T04:34:56;10.30;;;5.80;;
66800;SDS011;53703;50.326;19.122;2023-11-19T04:37:29;11.90;;;5.90;;
66800;SDS011;53703;50.326;19.122;2023-11-19T04:40:03;11.60;;;6.90;;
66800;SDS011;53703;50.326;19.122;2023-11-19T04:42:38;12.60;;;6.10;;
66800;SDS011;53703;50.326;19.122;2023-11-19T04:45:12;10.10;;;5.60;;
66800;SDS011;53703;50.326;19.122;2023-11-19T04:47:46;11.60;;;5.90;;
66800;SDS011;53703;50.326;19.122;2023-11-19T04:50:20;12.50;;;5.80;;
66800;SDS011;53703;50.326;19.122;2023-11-19T04:52:53;13.00;;;6.70;;
66800;SDS011;53703;50.326;19.122;2023-11-19T04:55:30;12.70;;;6.30;;
66800;SDS011;53703;50.326;19.122;2023-11-19T04:58:04;11.90;;;6.20;;
66800;SDS011;53703;50.326;19.122;2023-11-19T05:00:37;11.40;;;6.10;;
66800;SDS011;53703;50.326;19.122;2023-11-19T05:03:11;10.10;;;5.70;;
66800;SDS011;53703;50.326;19.122;2023-11-19T05:05:44;10.80;;;6.10;;
66800;SDS011;53703;50.326;19.122;2023-11-19T05:08:19;11.80;;;6.00;;
66800;SDS011;53703;50.326;19.122;2023-11-19T05:10:52;11.20;;;5.70;;
66800;SDS011;53703;50.326;19.122;2023-11-19T05:13:26;12.90;;;6.50;;
66800;SDS011;53703;50.326;19.122;2023-11-19T05:15:59;12.20;;;5.90;;
66800;SDS011;53703;50.326;19.122;2023-11-19T05:18:33;11.70;;;6.40;;
66800;SDS011;53703;50.326;19.122;2023-11-19T05:21:06;11.20;;;5.70;;
66800;SDS011;53703;50.326;19.122;2023-11-19T05:23:40;12.20;;;6.00;;
66800;SDS011;53703;50.326;19.122;2023-11-19T05:26:20;10.90;;;6.10;;
66800;SDS011;53703;50.326;19.122;2023-11-19T05:28:55;11.60;;;6.30;;
66800;SDS011;53703;50.326;19.122;2023-11-19T05:31:29;11.30;;;6.20;;
66800;SDS011;53703;50.326;19.122;2023-11-19T05:34:06;10.40;;;6.10;;
66800;SDS011;53703;50.326;19.122;2023-11-19T05:36:39;11.50;;;5.80;;
66800;SDS011;53703;50.326;19.122;2023-11-19T05:39:14;12.10;;;6.20;;
66800;SDS011;53703;50.326;19.122;2023-11-19T05:41:49;12.20;;;6.10;;
66800;SDS011;53703;50.326;19.122;2023-11-19T05:44:22;11.80;;;5.70;;
66800;SDS011;53703;50.326;19.122;2023-11-19T05:46:56;13.60;;;6.70;;
66800;SDS011;53703;50.326;19.122;2023-11-19T05:49:29;11.30;;;5.60;;
66800;SDS011;53703;50.326;19.122;2023-11-19T05:52:03;12.30;;;6.30;;
66800;SDS011;53703;50.326;19.122;2023-11-19T05:54:38;12.70;;;6.40;;
66800;SDS011;53703;50.326;19.122;2023-11-19T05:57:12;11.30;;;6.00;;
66800;SDS011;53703;50.326;19.122;2023-11-19T05:59:51;12.50;;;6.30;;
66800;SDS011;53703;50.326;19.122;2023-11-19T06:02:24;13.70;;;6.60;;
66800;SDS011;53703;50.326;19.122;2023-11-19T06:04:58;14.20;;;6.20;;
66800;SDS011;53703;50.326;19.122;2023-11-19T06:07:32;12.70;;;6.30;;
66800;SDS011;53703;50.326;19.122;2023-11-19T06:10:07;11.80;;;5.90;;
66800;SDS011;53703;50.326;19.122;2023-11-19T06:12:41;15.20;;;6.60;;
66800;SDS011;53703;50.326;19.122;2023-11-19T06:15:16;13.30;;;6.60;;
66800;SDS011;53703;50.326;19.122;2023-11-19T06:17:50;11.50;;;6.30;;
66800;SDS011;53703;50.326;19.122;2023-11-19T06:20:23;15.90;;;6.40;;
66800;SDS011;53703;50.326;19.122;2023-11-19T06:23:12;12.80;;;6.80;;
66800;SDS011;53703;50.326;19.122;2023-11-19T06:25:45;15.00;;;6.60;;
66800;SDS011;53703;50.326;19.122;2023-11-19T06:28:19;15.30;;;7.10;;
66800;SDS011;53703;50.326;19.122;2023-11-19T06:30:52;15.60;;;7.00;;
66800;SDS011;53703;50.326;19.122;2023-11-19T06:33:26;15.10;;;7.00;;
66800;SDS011;53703;50.326;19.122;2023-11-19T06:36:00;15.70;;;7.70;;
66800;SDS011;53703;50.326;19.122;2023-11-19T06:38:33;13.70;;;7.20;;
66800;SDS011;53703;50.326;19.122;2023-11-19T06:41:09;15.90;;;7.70;;
66800;SDS011;53703;50.326;19.122;2023-11-19T06:43:42;17.40;;;7.20;;
66800;SDS011;53703;50.326;19.122;2023-11-19T06:46:18;15.40;;;6.80;;
66800;SDS011;53703;50.326;19.122;2023-11-19T06:48:52;15.10;;;7.10;;
66800;SDS011;53703;50.326;19.122;2023-11-19T06:51:25;16.00;;;7.30;;
66800;SDS011;53703;50.326;19.122;2023-11-19T06:54:00;13.40;;;6.90;;
66800;SDS011;53703;50.326;19.122;2023-11-19T06:56:34;15.40;;;7.40;;
66800;SDS011;53703;50.326;19.122;2023-11-19T06:59:07;14.90;;;7.40;;
66800;SDS011;53703;50.326;19.122;2023-11-19T07:01:41;16.30;;;7.90;;
66800;SDS011;53703;50.326;19.122;2023-11-19T07:04:15;16.90;;;7.60;;
66800;SDS011;53703;50.326;19.122;2023-11-19T07:06:48;17.00;;;7.70;;
66800;SDS011;53703;50.326;19.122;2023-11-19T07:09:22;14.60;;;7.10;;
66800;SDS011;53703;50.326;19.122;2023-11-19T07:11:56;16.30;;;7.50;;
66800;SDS011;53703;50.326;19.122;2023-11-19T07:14:30;17.50;;;7.70;;
66800;SDS011;53703;50.326;19.122;2023-11-19T07:17:04;18.40;;;7.30;;
66800;SDS011;53703;50.326;19.122;2023-11-19T07:19:39;16.90;;;7.30;;
66800;SDS011;53703;50.326;19.122;2023-11-19T07:22:13;16.30;;;7.70;;
66800;SDS011;53703;50.326;19.122;2023-11-19T07:24:47;16.90;;;7.70;;
66800;SDS011;53703;50.326;19.122;2023-11-19T07:27:21;17.70;;;8.70;;
66800;SDS011;53703;50.326;19.122;2023-11-19T07:29:55;16.90;;;8.10;;
66800;SDS011;53703;50.326;19.122;2023-11-19T07:32:28;18.30;;;8.00;;
66800;SDS011;53703;50.326;19.122;2023-11-19T07:35:02;16.20;;;7.60;;
66800;SDS011;53703;50.326;19.122;2023-11-19T07:37:36;16.70;;;7.40;;
66800;SDS011;53703;50.326;19.122;2023-11-19T07:40:12;18.40;;;8.60;;
66800;SDS011;53703;50.326;19.122;2023-11-19T07:42:45;19.10;;;8.50;;
66800;SDS011;53703;50.326;19.122;2023-11-19T07:45:19;18.60;;;7.40;;
66800;SDS011;53703;50.326;19.122;2023-11-19T07:47:52;21.20;;;8.40;;
66800;SDS011;53703;50.326;19.122;2023-11-19T07:50:26;16.90;;;8.00;;
66800;SDS011;53703;50.326;19.122;2023-11-19T07:53:02;19.00;;;8.10;;
66800;SDS011;53703;50.326;19.122;2023-11-19T07:55:36;18.30;;;8.00;;
66800;SDS011;53703;50.326;19.122;2023-11-19T07:58:12;24.70;;;8.60;;
66800;SDS011;53703;50.326;19.122;2023-11-19T08:00:46;18.90;;;8.00;;
66800;SDS011;53703;50.326;19.122;2023-11-19T08:03:20;15.30;;;7.90;;
66800;SDS011;53703;50.326;19.122;2023-11-19T08:05:56;17.00;;;8.30;;
66800;SDS011;53703;50.326;19.122;2023-11-19T08:08:30;17.40;;;7.90;;
66800;SDS011;53703;50.326;19.122;2023-11-19T08:11:06;16.70;;;8.00;;
66800;SDS011;53703;50.326;19.122;2023-11-19T08:13:39;16.00;;;7.50;;
66800;SDS011;53703;50.326;19.122;2023-11-19T08:16:13;18.40;;;8.30;;
66800;SDS011;53703;50.326;19.122;2023-11-19T08:18:47;20.70;;;9.20;;
66800;SDS011;53703;50.326;19.122;2023-11-19T08:21:20;21.10;;;8.40;;
66800;SDS011;53703;50.326;19.122;2023-11-19T08:23:54;15.30;;;7.50;;
66800;SDS011;53703;50.326;19.122;2023-11-19T08:26:27;18.30;;;8.30;;
66800;SDS011;53703;50.326;19.122;2023-11-19T08:29:01;19.20;;;8.30;;
66800;SDS011;53703;50.326;19.122;2023-11-19T08:31:34;18.20;;;8.40;;
66800;SDS011;53703;50.326;19.122;2023-11-19T08:34:08;15.40;;;7.50;;
66800;SDS011;53703;50.326;19.122;2023-11-19T08:36:42;17.40;;;8.00;;
66800;SDS011;53703;50.326;19.122;2023-11-19T08:39:16;18.10;;;8.50;;
66800;SDS011;53703;50.326;19.122;2023-11-19T08:41:49;18.70;;;8.20;;
66800;SDS011;53703;50.326;19.122;2023-11-19T08:44:23;18.90;;;8.30;;
66800;SDS011;53703;50.326;19.122;2023-11-19T08:46:56;16.60;;;7.70;;
66800;SDS011;53703;50.326;19.122;2023-11-19T08:49:29;17.60;;;8.30;;
66800;SDS011;53703;50.326;19.122;2023-11-19T08:52:03;19.60;;;8.10;;
66800;SDS011;53703;50.326;19.122;2023-11-19T08:54:37;18.70;;;7.70;;
66800;SDS011;53703;50.326;19.122;2023-11-19T08:57:13;16.00;;;7.50;;
66800;SDS011;53703;50.326;19.122;2023-11-19T08:59:47;16.30;;;8.40;;
66800;SDS011;53703;50.326;19.122;2023-11-19T09:02:20;16.70;;;8.60;;
66800;SDS011;53703;50.326;19.122;2023-11-19T09:04:54;15.20;;;7.40;;
66800;SDS011;53703;50.326;19.122;2023-11-19T09:07:27;16.30;;;7.60;;
66800;SDS011;53703;50.326;19.122;2023-11-19T09:10:01;16.20;;;7.80;;
66800;SDS011;53703;50.326;19.122;2023-11-19T09:12:36;17.90;;;8.20;;
66800;SDS011;53703;50.326;19.122;2023-11-19T09:15:10;16.30;;;7.90;;
66800;SDS011;53703;50.326;19.122;2023-11-19T09:17:44;16.90;;;7.60;;
66800;SDS011;53703;50.326;19.122;2023-11-19T09:20:18;17.50;;;7.80;;
66800;SDS011;53703;50.326;19.122;2023-11-19T09:22:51;18.10;;;7.90;;
66800;SDS011;53703;50.326;19.122;2023-11-19T09:25:24;15.90;;;7.60;;
66800;SDS011;53703;50.326;19.122;2023-11-19T09:28:15;17.20;;;8.00;;
66800;SDS011;53703;50.326;19.122;2023-11-19T09:30:48;16.20;;;8.00;;
66800;SDS011;53703;50.326;19.122;2023-11-19T09:33:21;16.70;;;8.00;;
66800;SDS011;53703;50.326;19.122;2023-11-19T09:35:55;15.30;;;7.70;;
66800;SDS011;53703;50.326;19.122;2023-11-19T09:38:29;18.20;;;8.10;;
66800;SDS011;53703;50.326;19.122;2023-11-19T09:41:03;16.00;;;7.70;;
66800;SDS011;53703;50.326;19.122;2023-11-19T09:43:39;16.70;;;7.00;;
66800;SDS011;53703;50.326;19.122;2023-11-19T09:46:14;16.10;;;7.90;;
66800;SDS011;53703;50.326;19.122;2023-11-19T09:48:48;17.70;;;8.10;;
66800;SDS011;53703;50.326;19.122;2023-11-19T09:51:25;20.80;;;8.60;;
66800;SDS011;53703;50.326;19.122;2023-11-19T09:53:59;18.70;;;7.90;;
66800;SDS011;53703;50.326;19.122;2023-11-19T09:56:33;14.90;;;7.90;;
66800;SDS011;53703;50.326;19.122;2023-11-19T09:59:08;15.50;;;7.60;;
66800;SDS011;53703;50.326;19.122;2023-11-19T10:01:41;16.90;;;7.70;;
66800;SDS011;53703;50.326;19.122;2023-11-19T10:04:17;16.10;;;7.60;;
66800;SDS011;53703;50.326;19.122;2023-11-19T10:06:51;17.40;;;7.90;;
66800;SDS011;53703;50.326;19.122;2023-11-19T10:09:25;16.30;;;8.00;;
66800;SDS011;53703;50.326;19.122;2023-11-19T10:11:58;14.60;;;7.50;;
66800;SDS011;53703;50.326;19.122;2023-11-19T10:14:32;15.80;;;7.70;;
66800;SDS011;53703;50.326;19.122;2023-11-19T10:17:10;20.20;;;7.60;;
66800;SDS011;53703;50.326;19.122;2023-11-19T10:19:45;18.00;;;7.90;;
66800;SDS011;53703;50.326;19.122;2023-11-19T10:22:18;16.30;;;8.00;;
66800;SDS011;53703;50.326;19.122;2023-11-19T10:24:51;20.40;;;8.00;;
66800;SDS011;53703;50.326;19.122;2023-11-19T10:27:26;15.80;;;7.60;;
66800;SDS011;53703;50.326;19.122;2023-11-19T10:30:02;15.10;;;7.50;;
66800;SDS011;53703;50.326;19.122;2023-11-19T10:32:40;16.30;;;8.20;;
66800;SDS011;53703;50.326;19.122;2023-11-19T10:35:14;14.40;;;7.70;;
66800;SDS011;53703;50.326;19.122;2023-11-19T10:37:47;16.80;;;7.60;;
66800;SDS011;53703;50.326;19.122;2023-11-19T10:40:21;18.00;;;8.60;;
66800;SDS011;53703;50.326;19.122;2023-11-19T10:43:04;16.60;;;7.90;;
66800;SDS011;53703;50.326;19.122;2023-11-19T10:45:39;16.60;;;7.90;;
66800;SDS011;53703;50.326;19.122;2023-11-19T10:48:12;15.50;;;7.60;;
66800;SDS011;53703;50.326;19.122;2023-11-19T10:50:46;16.70;;;7.40;;
66800;SDS011;53703;50.326;19.122;2023-11-19T10:53:26;15.00;;;7.40;;
66800;SDS011;53703;50.326;19.122;2023-11-19T10:56:00;15.80;;;7.70;;
66800;SDS011;53703;50.326;19.122;2023-11-19T10:58:36;17.20;;;7.40;;
66800;SDS011;53703;50.326;19.122;2023-11-19T11:01:18;16.10;;;7.20;;
66800;SDS011;53703;50.326;19.122;2023-11-19T11:06:27;17.30;;;8.80;;
66800;SDS011;53703;50.326;19.122;2023-11-19T11:09:02;15.30;;;8.60;;
66800;SDS011;53703;50.326;19.122;2023-11-19T11:11:36;18.60;;;8.50;;
66800;SDS011;53703;50.326;19.122;2023-11-19T11:14:10;15.50;;;8.10;;
66800;SDS011;53703;50.326;19.122;2023-11-19T11:16:46;15.70;;;8.10;;
66800;SDS011;53703;50.326;19.122;2023-11-19T11:19:20;16.40;;;8.10;;
66800;SDS011;53703;50.326;19.122;2023-11-19T11:21:55;19.30;;;8.70;;
66800;SDS011;53703;50.326;19.122;2023-11-19T11:27:57;15.10;;;7.80;;
66800;SDS011;53703;50.326;19.122;2023-11-19T11:30:49;18.20;;;8.30;;
66800;SDS011;53703;50.326;19.122;2023-11-19T11:33:44;27.00;;;7.70;;
66800;SDS011;53703;50.326;19.122;2023-11-19T11:36:36;18.40;;;8.60;;
66800;SDS011;53703;50.326;19.122;2023-11-19T11:39:17;17.60;;;8.00;;
66800;SDS011;53703;50.326;19.122;2023-11-19T11:45:07;19.50;;;7.90;;
66800;SDS011;53703;50.326;19.122;2023-11-19T11:48:08;18.40;;;8.40;;
66800;SDS011;53703;50.326;19.122;2023-11-19T11:50:55;17.10;;;8.30;;
66800;SDS011;53703;50.326;19.122;2023-11-19T11:53:29;16.10;;;8.70;;
66800;SDS011;53703;50.326;19.122;2023-11-19T11:56:07;17.00;;;8.70;;
66800;SDS011;53703;50.326;19.122;2023-11-19T11:58:40;14.90;;;8.30;;
66800;SDS011;53703;50.326;19.122;2023-11-19T12:01:16;15.70;;;7.70;;
66800;SDS011;53703;50.326;19.122;2023-11-19T12:03:51;16.90;;;9.00;;
66800;SDS011;53703;50.326;19.122;2023-11-19T12:06:28;15.50;;;8.20;;
66800;SDS011;53703;50.326;19.122;2023-11-19T12:09:04;16.40;;;8.40;;
66800;SDS011;53703;50.326;19.122;2023-11-19T12:11:38;14.80;;;8.00;;
66800;SDS011;53703;50.326;19.122;2023-11-19T12:14:20;16.00;;;8.20;;
66800;SDS011;53703;50.326;19.122;2023-11-19T12:20:21;15.40;;;7.70;;
66800;SDS011;53703;50.326;19.122;2023-11-19T12:22:58;17.30;;;7.90;;
66800;SDS011;53703;50.326;19.122;2023-11-19T12:25:38;15.10;;;8.20;;
66800;SDS011;53703;50.326;19.122;2023-11-19T12:28:14;18.00;;;7.90;;
66800;SDS011;53703;50.326;19.122;2023-11-19T12:30:49;14.70;;;7.60;;
66800;SDS011;53703;50.326;19.122;2023-11-19T12:33:24;15.70;;;7.70;;
66800;SDS011;53703;50.326;19.122;2023-11-19T12:35:57;14.80;;;7.80;;
66800;SDS011;53703;50.326;19.122;2023-11-19T12:38:35;14.30;;;7.10;;
66800;SDS011;53703;50.326;19.122;2023-11-19T12:41:09;15.40;;;7.60;;
66800;SDS011;53703;50.326;19.122;2023-11-19T12:43:43;14.40;;;7.30;;
66800;SDS011;53703;50.326;19.122;2023-11-19T12:46:21;14.50;;;7.40;;
66800;SDS011;53703;50.326;19.122;2023-11-19T12:48:55;13.10;;;7.00;;
66800;SDS011;53703;50.326;19.122;2023-11-19T12:51:33;17.50;;;7.70;;
66800;SDS011;53703;50.326;19.122;2023-11-19T12:54:07;15.60;;;8.10;;
66800;SDS011;53703;50.326;19.122;2023-11-19T12:56:51;23.50;;;8.30;;
66800;SDS011;53703;50.326;19.122;2023-11-19T12:59:25;17.60;;;8.30;;
66800;SDS011;53703;50.326;19.122;2023-11-19T13:01:59;18.20;;;8.10;;
66800;SDS011;53703;50.326;19.122;2023-11-19T13:04:36;16.80;;;7.80;;
66800;SDS011;53703;50.326;19.122;2023-11-19T13:07:10;16.00;;;8.10;;
66800;SDS011;53703;50.326;19.122;2023-11-19T13:09:43;17.70;;;7.80;;
66800;SDS011;53703;50.326;19.122;2023-11-19T13:12:17;18.60;;;8.40;;
66800;SDS011;53703;50.326;19.122;2023-11-19T13:14:50;17.50;;;7.80;;
66800;SDS011;53703;50.326;19.122;2023-11-19T13:17:24;15.80;;;8.30;;
66800;SDS011;53703;50.326;19.122;2023-11-19T13:19:58;16.40;;;8.60;;
66800;SDS011;53703;50.326;19.122;2023-11-19T13:22:34;21.40;;;8.10;;
66800;SDS011;53703;50.326;19.122;2023-11-19T13:25:08;20.20;;;9.30;;
66800;SDS011;53703;50.326;19.122;2023-11-19T13:27:42;19.40;;;9.30;;
66800;SDS011;53703;50.326;19.122;2023-11-19T13:30:19;18.60;;;9.60;;
66800;SDS011;53703;50.326;19.122;2023-11-19T13:32:56;15.80;;;8.20;;
66800;SDS011;53703;50.326;19.122;2023-11-19T13:35:31;20.70;;;9.00;;
66800;SDS011;53703;50.326;19.122;2023-11-19T13:38:06;16.90;;;8.90;;
66800;SDS011;53703;50.326;19.122;2023-11-19T13:40:39;19.50;;;9.00;;
66800;SDS011;53703;50.326;19.122;2023-11-19T13:43:13;20.70;;;9.90;;
66800;SDS011;53703;50.326;19.122;2023-11-19T13:45:47;20.00;;;9.90;;
66800;SDS011;53703;50.326;19.122;2023-11-19T13:48:21;20.00;;;10.30;;
66800;SDS011;53703;50.326;19.122;2023-11-19T13:50:55;17.90;;;9.40;;
66800;SDS011;53703;50.326;19.122;2023-11-19T13:53:28;17.00;;;10.20;;
66800;SDS011;53703;50.326;19.122;2023-11-19T13:56:02;20.20;;;10.00;;
66800;SDS011;53703;50.326;19.122;2023-11-19T13:58:36;19.60;;;10.20;;
66800;SDS011;53703;50.326;19.122;2023-11-19T14:01:10;18.30;;;10.80;;
66800;SDS011;53703;50.326;19.122;2023-11-19T14:03:45;22.50;;;10.60;;
66800;SDS011;53703;50.326;19.122;2023-11-19T14:06:19;21.80;;;11.30;;
66800;SDS011;53703;50.326;19.122;2023-11-19T14:08:52;22.40;;;11.80;;
66800;SDS011;53703;50.326;19.122;2023-11-19T14:11:26;22.50;;;11.00;;
66800;SDS011;53703;50.326;19.122;2023-11-19T14:14:00;23.60;;;11.90;;
66800;SDS011;53703;50.326;19.122;2023-11-19T14:16:33;24.70;;;11.20;;
66800;SDS011;53703;50.326;19.122;2023-11-19T14:19:08;24.40;;;10.90;;
66800;SDS011;53703;50.326;19.122;2023-11-19T14:21:41;23.00;;;11.90;;
66800;SDS011;53703;50.326;19.122;2023-11-19T14:24:15;24.40;;;11.60;;
66800;SDS011;53703;50.326;19.122;2023-11-19T14:26:49;25.50;;;12.20;;
66800;SDS011;53703;50.326;19.122;2023-11-19T14:43:00;29.30;;;13.80;;
66800;SDS011;53703;50.326;19.122;2023-11-19T14:45:34;23.90;;;12.40;;
66800;SDS011;53703;50.326;19.122;2023-11-19T14:48:17;27.90;;;12.80;;
66800;SDS011;53703;50.326;19.122;2023-11-19T14:50:51;24.50;;;12.50;;
66800;SDS011;53703;50.326;19.122;2023-11-19T14:53:24;40.10;;;13.30;;
66800;SDS011;53703;50.326;19.122;2023-11-19T14:55:58;24.50;;;12.40;;
66800;SDS011;53703;50.326;19.122;2023-11-19T14:58:31;28.30;;;12.60;;
66800;SDS011;53703;50.326;19.122;2023-11-19T15:01:06;27.40;;;12.40;;
66800;SDS011;53703;50.326;19.122;2023-11-19T15:03:43;23.30;;;11.60;;
66800;SDS011;53703;50.326;19.122;2023-11-19T15:06:24;25.10;;;11.90;;
66800;SDS011;53703;50.326;19.122;2023-11-19T15:08:58;21.00;;;11.40;;
66800;SDS011;53703;50.326;19.122;2023-11-19T15:11:31;23.70;;;11.10;;
66800;SDS011;53703;50.326;19.122;2023-11-19T15:14:05;26.30;;;11.70;;
66800;SDS011;53703;50.326;19.122;2023-11-19T15:16:39;24.90;;;11.80;;
66800;SDS011;53703;50.326;19.122;2023-11-19T15:19:12;22.80;;;11.60;;
66800;SDS011;53703;50.326;19.122;2023-11-19T15:21:46;24.20;;;11.90;;
66800;SDS011;53703;50.326;19.122;2023-11-19T15:24:19;22.00;;;11.10;;
66800;SDS011;53703;50.326;19.122;2023-11-19T15:26:53;25.10;;;11.60;;
66800;SDS011;53703;50.326;19.122;2023-11-19T15:29:44;26.10;;;11.40;;
66800;SDS011;53703;50.326;19.122;2023-11-19T15:32:17;21.60;;;10.80;;